createdAt,value
2022-12-15T00:00:22.415Z,51.25
2022-12-15T00:03:10.277Z,53.17
2022-12-15T00:06:00.358Z,58.35
2022-12-15T00:08:45.851Z,57.92
2022-12-15T00:11:33.472Z,57.20
2022-12-15T00:14:18.920Z,53.50
2022-12-15T00:17:06.328Z,51.53
2022-12-15T00:19:51.779Z,53.47
2022-12-15T00:22:39.415Z,52.65
2022-12-15T00:25:27.399Z,43.72
2022-12-15T00:28:15.444Z,46.20
2022-12-15T00:31:02.679Z,46.15
2022-12-15T00:33:50.573Z,43.20
2022-12-15T00:36:35.944Z,41.03
2022-12-15T00:39:04.918Z,39.28
2022-12-15T00:41:31.841Z,42.08
2022-12-15T00:43:59.062Z,42.20
2022-12-15T00:46:44.419Z,44.47
2022-12-15T00:49:32.126Z,40.03
2022-12-15T00:52:17.476Z,46.95
2022-12-15T00:55:02.922Z,50.08
2022-12-15T00:57:48.439Z,32.00
2022-12-15T01:00:36.313Z,41.75
2022-12-15T01:03:34.998Z,41.65
2022-12-15T01:06:28.216Z,44.65
2022-12-15T01:09:16.326Z,40.90
2022-12-15T01:12:02.766Z,44.55
2022-12-15T01:14:51.629Z,42.97
2022-12-15T01:17:41.595Z,39.83
2022-12-15T01:20:18.621Z,41.03
2022-12-15T01:22:56.682Z,47.65
2022-12-15T01:25:25.560Z,45.15
2022-12-15T01:27:52.428Z,45.75
2022-12-15T01:30:22.371Z,45.10
2022-12-15T01:32:51.854Z,32.47
2022-12-15T01:35:21.374Z,40.05
2022-12-15T01:37:50.547Z,45.17
2022-12-15T01:40:39.333Z,43.00
2022-12-15T01:43:18.227Z,38.75
2022-12-15T01:45:59.432Z,41.85
2022-12-15T01:48:36.907Z,35.30
2022-12-15T01:51:14.486Z,43.25
2022-12-15T01:53:50.236Z,43.28
2022-12-15T01:56:20.371Z,42.05
2022-12-15T01:58:51.172Z,45.08
2022-12-15T02:01:18.091Z,47.10
2022-12-15T02:03:50.654Z,44.65
2022-12-15T02:06:22.404Z,47.30
2022-12-15T02:08:55.230Z,43.38
2022-12-15T02:11:55.247Z,45.58
2022-12-15T02:14:53.491Z,48.55
2022-12-15T02:17:23.183Z,42.50
2022-12-15T02:20:08.294Z,53.40
2022-12-15T02:23:21.884Z,45.08
2022-12-15T02:25:51.287Z,45.83
2022-12-15T02:28:48.439Z,44.15
2022-12-15T02:31:49.937Z,45.08
2022-12-15T02:34:35.172Z,40.30
2022-12-15T02:37:40.231Z,40.70
2022-12-15T02:40:12.316Z,39.80
2022-12-15T02:42:55.837Z,38.17
2022-12-15T02:45:47.836Z,43.95
2022-12-15T02:48:49.974Z,44.85
2022-12-15T02:51:28.975Z,36.95
2022-12-15T02:54:17.315Z,49.33
2022-12-15T02:56:54.540Z,40.53
2022-12-15T02:59:32.291Z,45.22
2022-12-15T03:02:05.853Z,43.53
2022-12-15T03:04:37.526Z,37.75
2022-12-15T03:07:08.289Z,48.42
2022-12-15T03:09:35.260Z,48.22
2022-12-15T03:12:04.411Z,40.40
2022-12-15T03:14:31.182Z,46.55
2022-12-15T03:17:00.410Z,48.20
2022-12-15T03:19:27.344Z,39.17
2022-12-15T03:21:56.178Z,45.13
2022-12-15T03:24:22.914Z,50.88
2022-12-15T03:26:51.914Z,47.33
2022-12-15T03:29:18.666Z,45.45
2022-12-15T03:31:45.701Z,39.38
2022-12-15T03:34:16.403Z,44.67
2022-12-15T03:36:46.055Z,49.92
2022-12-15T03:39:14.977Z,40.28
2022-12-15T03:41:44.167Z,42.30
2022-12-15T03:44:10.967Z,44.05
2022-12-15T03:46:37.720Z,35.33
2022-12-15T03:49:04.571Z,41.65
2022-12-15T03:51:35.971Z,45.38
2022-12-15T03:54:04.833Z,34.08
2022-12-15T03:56:33.750Z,42.95
2022-12-15T03:59:07.724Z,42.00
2022-12-15T04:01:38.595Z,38.75
2022-12-15T04:04:05.740Z,46.60
2022-12-15T04:06:32.569Z,54.35
2022-12-15T04:08:59.282Z,40.25
2022-12-15T04:11:28.261Z,44.25
2022-12-15T04:13:57.494Z,46.20
2022-12-15T04:16:26.356Z,43.78
2022-12-15T04:19:13.172Z,46.20
2022-12-15T04:21:39.909Z,40.40
2022-12-15T04:24:27.640Z,47.65
2022-12-15T04:27:13.008Z,47.72
2022-12-15T04:30:00.968Z,45.70
2022-12-15T04:32:46.534Z,40.70
2022-12-15T04:35:35.783Z,47.63
2022-12-15T04:38:23.670Z,43.42
2022-12-15T04:41:11.526Z,43.47
2022-12-15T04:43:56.958Z,47.60
2022-12-15T04:46:44.918Z,53.95
2022-12-15T04:49:30.341Z,44.80
2022-12-15T04:52:16.302Z,45.95
2022-12-15T04:55:01.633Z,44.10
2022-12-15T04:57:47.129Z,49.00
2022-12-15T05:00:32.413Z,44.75
2022-12-15T05:03:23.784Z,46.70
2022-12-15T05:06:09.189Z,44.67
2022-12-15T05:08:54.667Z,51.53
2022-12-15T05:11:40.020Z,45.63
2022-12-15T05:14:25.612Z,51.15
2022-12-15T05:17:11.026Z,46.55
2022-12-15T05:19:56.327Z,46.45
2022-12-15T05:22:43.853Z,51.65
2022-12-15T05:25:29.155Z,49.25
2022-12-15T05:28:14.725Z,45.88
2022-12-15T05:31:00.364Z,64.90
2022-12-15T05:33:29.627Z,73.85
2022-12-15T05:35:59.742Z,54.30
2022-12-15T05:38:26.494Z,44.65
2022-12-15T05:40:59.999Z,55.85
2022-12-15T05:43:29.370Z,47.88
2022-12-15T05:45:58.735Z,53.13
2022-12-15T05:48:27.432Z,55.55
2022-12-15T05:50:54.849Z,56.17
2022-12-15T05:53:21.652Z,61.97
2022-12-15T05:55:50.531Z,61.58
2022-12-15T05:58:22.245Z,48.20
2022-12-15T06:00:51.072Z,51.55
2022-12-15T06:03:20.349Z,78.82
2022-12-15T06:05:51.699Z,72.07
2022-12-15T06:08:21.446Z,61.38
2022-12-15T06:10:54.680Z,64.07
2022-12-15T06:13:23.067Z,59.10
2022-12-15T06:15:59.928Z,61.65
2022-12-15T06:18:30.458Z,59.78
2022-12-15T06:21:02.196Z,43.45
2022-12-15T06:23:30.119Z,53.15
2022-12-15T06:26:07.785Z,55.88
2022-12-15T06:28:36.977Z,47.13
2022-12-15T06:31:10.501Z,55.70
2022-12-15T06:33:37.956Z,52.30
2022-12-15T06:36:10.130Z,45.90
2022-12-15T06:38:43.436Z,51.70
2022-12-15T06:41:15.047Z,44.63
2022-12-15T06:43:42.190Z,51.10
2022-12-15T06:46:11.238Z,45.22
2022-12-15T06:48:42.308Z,47.88
2022-12-15T06:51:16.401Z,43.43
2022-12-15T06:53:49.001Z,52.45
2022-12-15T06:56:30.427Z,55.38
2022-12-15T06:58:59.704Z,52.90
2022-12-15T07:01:35.173Z,47.78
2022-12-15T07:04:04.297Z,41.67
2022-12-15T07:06:38.579Z,44.63
2022-12-15T07:09:08.165Z,52.58
2022-12-15T07:11:37.891Z,53.38
2022-12-15T07:14:04.958Z,51.50
2022-12-15T07:16:32.213Z,67.40
2022-12-15T07:18:59.068Z,53.38
2022-12-15T07:21:32.955Z,51.00
2022-12-15T07:24:02.771Z,53.22
2022-12-15T07:26:32.107Z,50.78
2022-12-15T07:28:58.795Z,57.50
2022-12-15T07:31:30.003Z,53.17
2022-12-15T07:33:58.245Z,58.58
2022-12-15T07:36:29.596Z,57.13
2022-12-15T07:39:03.923Z,53.58
2022-12-15T07:41:35.420Z,49.28
2022-12-15T07:44:04.320Z,49.25
2022-12-15T07:46:31.188Z,50.50
2022-12-15T07:48:58.088Z,45.38
2022-12-15T07:51:27.800Z,45.28
2022-12-15T07:53:56.912Z,49.00
2022-12-15T07:56:26.142Z,45.75
2022-12-15T07:58:55.385Z,41.83
2022-12-15T08:01:24.942Z,44.75
2022-12-15T08:03:54.241Z,45.17
2022-12-15T08:06:23.341Z,36.90
2022-12-15T08:08:52.781Z,43.95
2022-12-15T08:11:22.359Z,42.47
2022-12-15T08:14:15.050Z,45.70
2022-12-15T08:16:54.486Z,46.25
2022-12-15T08:19:23.813Z,38.70
2022-12-15T08:21:52.835Z,44.72
2022-12-15T08:24:21.718Z,41.03
2022-12-15T08:26:50.824Z,46.28
2022-12-15T08:32:08.785Z,45.90
2022-12-15T08:34:38.902Z,45.92
2022-12-15T08:37:07.885Z,43.30
2022-12-15T08:39:37.087Z,43.95
2022-12-15T08:42:06.237Z,45.40
2022-12-15T08:44:35.140Z,43.60
2022-12-15T08:47:06.984Z,40.33
2022-12-15T08:49:33.742Z,47.00
2022-12-15T08:52:02.766Z,49.15
2022-12-15T08:54:29.662Z,47.63
2022-12-15T08:56:56.326Z,43.92
2022-12-15T08:59:23.101Z,38.53
2022-12-15T09:01:54.602Z,35.28
2022-12-15T09:04:21.774Z,47.72
2022-12-15T09:06:51.190Z,44.50
2022-12-15T09:09:18.597Z,44.20
2022-12-15T09:11:48.576Z,41.50
2022-12-15T09:14:22.732Z,39.88
2022-12-15T09:16:54.856Z,49.47
2022-12-15T09:19:23.992Z,44.03
2022-12-15T09:21:53.256Z,40.38
2022-12-15T09:24:33.939Z,42.70
2022-12-15T09:27:01.531Z,45.97
2022-12-15T09:29:28.225Z,43.33
2022-12-15T09:31:57.286Z,42.25
2022-12-15T09:34:24.253Z,44.58
2022-12-15T09:36:50.999Z,37.78
2022-12-15T09:39:20.291Z,39.00
2022-12-15T09:41:54.947Z,40.45
2022-12-15T09:44:24.558Z,41.67
2022-12-15T09:47:16.345Z,41.10
2022-12-15T09:49:51.264Z,40.30
2022-12-15T09:52:19.793Z,36.53
2022-12-15T09:54:49.353Z,42.35
2022-12-15T09:57:18.830Z,31.63
2022-12-15T10:00:04.821Z,38.20
2022-12-15T10:02:49.905Z,36.15
2022-12-15T10:06:06.882Z,44.55
2022-12-15T10:08:34.995Z,35.17
2022-12-15T10:11:18.049Z,42.80
2022-12-15T10:13:52.607Z,40.25
2022-12-15T10:16:52.730Z,39.72
2022-12-15T10:19:46.734Z,35.53
2022-12-15T10:22:23.645Z,39.35
2022-12-15T10:28:07.865Z,33.30
2022-12-15T10:30:35.531Z,44.72
2022-12-15T10:33:27.980Z,42.65
2022-12-15T10:35:57.415Z,48.08
2022-12-15T10:38:37.922Z,39.90
2022-12-15T10:41:26.197Z,36.08
2022-12-15T10:43:54.770Z,40.78
2022-12-15T10:46:29.688Z,34.97
2022-12-15T10:48:59.909Z,41.13
2022-12-15T10:51:31.567Z,41.55
2022-12-15T10:54:10.405Z,41.60
2022-12-15T10:56:52.459Z,46.53
2022-12-15T10:59:25.355Z,39.53
2022-12-15T11:01:55.212Z,39.28
2022-12-15T11:04:34.695Z,76.97
2022-12-15T11:07:13.704Z,60.13
2022-12-15T11:09:40.479Z,45.67
2022-12-15T11:12:38.962Z,43.08
2022-12-15T11:15:31.781Z,46.03
2022-12-15T11:18:07.410Z,45.47
2022-12-15T11:20:38.230Z,33.63
2022-12-15T11:23:30.693Z,40.05
2022-12-15T11:25:59.246Z,56.50
2022-12-15T11:28:41.976Z,47.67
2022-12-15T11:31:25.233Z,58.78
2022-12-15T11:33:56.478Z,52.55
2022-12-15T11:36:50.254Z,41.67
2022-12-15T11:39:42.009Z,39.97
2022-12-15T11:42:16.160Z,35.50
2022-12-15T11:44:55.642Z,50.22
2022-12-15T11:47:34.319Z,52.50
2022-12-15T11:50:14.539Z,35.05
2022-12-15T11:53:08.496Z,35.95
2022-12-15T11:56:03.411Z,31.35
2022-12-15T11:58:42.208Z,33.25
2022-12-15T12:01:16.252Z,41.60
2022-12-15T12:03:49.526Z,37.70
2022-12-15T12:06:34.025Z,40.30
2022-12-15T12:09:12.687Z,36.67
2022-12-15T12:12:00.872Z,41.47
2022-12-15T12:14:38.972Z,33.33
2022-12-15T12:17:14.965Z,32.25
2022-12-15T12:19:43.306Z,33.30
2022-12-15T12:22:27.943Z,33.85
2022-12-15T12:25:14.572Z,35.55
2022-12-15T12:27:48.745Z,32.78
2022-12-15T12:30:22.718Z,36.42
2022-12-15T12:33:03.852Z,35.75
2022-12-15T12:35:40.743Z,34.95
2022-12-15T12:38:11.425Z,34.22
2022-12-15T12:40:40.912Z,37.03
2022-12-15T12:43:14.021Z,34.17
2022-12-15T12:45:53.451Z,37.25
2022-12-15T12:48:41.607Z,34.22
2022-12-15T12:51:42.737Z,41.45
2022-12-15T12:54:34.613Z,42.95
2022-12-15T12:57:22.290Z,35.28
2022-12-15T12:59:51.722Z,38.92
2022-12-15T13:02:21.596Z,41.60
2022-12-15T13:04:57.570Z,44.70
2022-12-15T13:07:30.135Z,38.65
2022-12-15T13:10:08.779Z,76.53
2022-12-15T13:12:53.254Z,68.03
2022-12-15T13:15:31.829Z,50.75
2022-12-15T13:18:21.029Z,39.60
2022-12-15T13:20:50.785Z,79.28
2022-12-15T13:23:23.313Z,100.53
2022-12-15T13:28:43.200Z,38.97
2022-12-15T13:31:20.049Z,37.95
2022-12-15T13:33:50.197Z,40.25
2022-12-15T13:36:42.271Z,34.97
2022-12-15T13:39:14.730Z,40.95
2022-12-15T13:42:07.409Z,37.13
2022-12-15T13:44:38.191Z,34.20
2022-12-15T13:47:29.540Z,34.33
2022-12-15T13:50:02.220Z,36.47
2022-12-15T13:53:17.155Z,32.30
2022-12-15T13:55:37.216Z,39.45
2022-12-15T13:58:07.635Z,33.15
2022-12-15T14:00:39.331Z,32.67
2022-12-15T14:03:10.707Z,33.05
2022-12-15T14:05:39.148Z,25.77
2022-12-15T14:08:15.753Z,31.30
2022-12-15T14:10:49.130Z,37.38
2022-12-15T14:13:28.567Z,32.42
2022-12-15T14:15:55.459Z,32.22
2022-12-15T14:18:39.117Z,37.88
2022-12-15T14:21:22.254Z,35.30
2022-12-15T14:24:28.467Z,32.92
2022-12-15T14:26:38.531Z,32.90
2022-12-15T14:29:06.445Z,32.65
2022-12-15T14:31:33.543Z,32.47
2022-12-15T14:34:15.382Z,35.50
2022-12-15T14:36:45.998Z,28.90
2022-12-15T14:39:23.132Z,29.73
2022-12-15T14:41:54.350Z,31.33
2022-12-15T14:44:39.203Z,32.28
2022-12-15T14:47:16.546Z,29.70
2022-12-15T14:49:48.424Z,30.45
2022-12-15T14:52:37.847Z,26.35
2022-12-15T14:55:30.880Z,30.30
2022-12-15T14:58:00.307Z,25.92
2022-12-15T15:00:36.024Z,28.45
2022-12-15T15:03:09.637Z,43.65
2022-12-15T15:08:29.367Z,25.80
2022-12-15T15:11:00.298Z,29.23
2022-12-15T15:13:40.009Z,26.50
2022-12-15T15:16:14.216Z,27.90
2022-12-15T15:18:42.691Z,27.80
2022-12-15T15:21:18.242Z,27.88
2022-12-15T15:24:04.156Z,26.23
2022-12-15T15:26:33.767Z,31.67
2022-12-15T15:29:03.324Z,35.95
2022-12-15T15:31:35.253Z,39.75
2022-12-15T15:34:07.119Z,27.70
2022-12-15T15:36:36.402Z,27.67
2022-12-15T15:39:11.845Z,32.08
2022-12-15T15:41:38.611Z,30.58
2022-12-15T15:44:14.661Z,29.25
2022-12-15T15:46:53.176Z,34.05
2022-12-15T15:49:21.759Z,32.30
2022-12-15T15:51:49.054Z,26.33
2022-12-15T15:54:22.159Z,31.05
2022-12-15T15:56:51.258Z,29.42
2022-12-15T15:59:21.123Z,27.88
2022-12-15T16:01:56.280Z,29.13
2022-12-15T16:04:28.321Z,29.65
2022-12-15T16:09:22.566Z,23.17
2022-12-15T16:11:49.400Z,30.67
2022-12-15T16:14:18.469Z,32.38
2022-12-15T16:16:47.476Z,29.55
2022-12-15T16:19:16.419Z,29.38
2022-12-15T16:21:43.510Z,29.77
2022-12-15T16:24:18.417Z,27.92
2022-12-15T16:26:50.796Z,35.53
2022-12-15T16:29:24.368Z,33.35
2022-12-15T16:31:53.429Z,28.63
2022-12-15T16:34:21.485Z,32.85
2022-12-15T16:36:48.181Z,31.75
2022-12-15T16:39:36.582Z,29.77
2022-12-15T16:42:06.153Z,32.42
2022-12-15T16:44:37.601Z,29.33
2022-12-15T16:47:06.588Z,26.70
2022-12-15T16:49:39.960Z,29.73
2022-12-15T16:52:18.467Z,30.92
2022-12-15T16:54:48.296Z,33.00
2022-12-15T16:57:15.450Z,36.67
2022-12-15T16:59:42.170Z,30.17
2022-12-15T17:02:28.296Z,34.83
2022-12-15T17:04:55.601Z,34.70
2022-12-15T17:07:24.067Z,29.75
2022-12-15T17:09:53.465Z,32.67
2022-12-15T17:12:22.575Z,32.50
2022-12-15T17:14:49.302Z,36.08
2022-12-15T17:17:21.826Z,31.77
2022-12-15T17:20:27.445Z,32.40
2022-12-15T17:22:37.309Z,32.58
2022-12-15T17:25:04.338Z,36.25
2022-12-15T17:27:33.547Z,40.30
2022-12-15T17:30:03.027Z,36.60
2022-12-15T17:32:29.900Z,35.08
2022-12-15T17:34:59.152Z,33.40
2022-12-15T17:37:29.171Z,30.73
2022-12-15T17:39:58.714Z,38.78
2022-12-15T17:42:27.565Z,34.42
2022-12-15T17:44:56.460Z,38.63
2022-12-15T17:47:27.966Z,33.45
2022-12-15T17:49:57.117Z,35.13
2022-12-15T17:52:34.697Z,31.17
2022-12-15T17:55:18.337Z,34.15
2022-12-15T17:57:47.809Z,36.42
2022-12-15T18:00:18.130Z,31.75
2022-12-15T18:02:45.152Z,30.73
2022-12-15T18:05:14.470Z,28.50
2022-12-15T18:07:44.422Z,34.42
2022-12-15T18:10:23.555Z,32.92
2022-12-15T18:12:50.432Z,31.58
2022-12-15T18:15:24.508Z,31.27
2022-12-15T18:17:53.597Z,43.90
2022-12-15T18:20:20.702Z,31.77
2022-12-15T18:22:49.658Z,29.63
2022-12-15T18:25:28.428Z,32.17
2022-12-15T18:27:56.380Z,31.95
2022-12-15T18:30:27.265Z,30.50
2022-12-15T18:32:58.837Z,30.27
2022-12-15T18:35:33.476Z,32.92
2022-12-15T18:38:22.348Z,33.45
2022-12-15T18:40:57.134Z,35.10
2022-12-15T18:43:26.410Z,33.92
2022-12-15T18:45:53.174Z,34.20
2022-12-15T18:48:26.545Z,37.33
2022-12-15T18:50:56.906Z,39.70
2022-12-15T18:53:36.162Z,34.92
2022-12-15T18:56:07.606Z,31.77
2022-12-15T18:58:42.083Z,30.42
2022-12-15T19:01:10.645Z,32.28
2022-12-15T19:03:42.950Z,30.85
2022-12-15T19:06:34.774Z,26.63
2022-12-15T19:09:28.762Z,27.15
2022-12-15T19:12:16.675Z,30.40
2022-12-15T19:14:50.964Z,34.88
2022-12-15T19:17:39.277Z,30.05
2022-12-15T19:20:34.004Z,29.65
2022-12-15T19:23:00.862Z,32.15
2022-12-15T19:25:31.878Z,33.22
2022-12-15T19:28:02.362Z,27.67
2022-12-15T19:30:36.935Z,32.13
2022-12-15T19:33:07.867Z,30.08
2022-12-15T19:35:36.789Z,31.33
2022-12-15T19:38:04.889Z,31.30
2022-12-15T19:40:34.341Z,29.15
2022-12-15T19:43:02.159Z,28.77
2022-12-15T19:45:33.725Z,28.85
2022-12-15T19:48:02.902Z,27.70
2022-12-15T19:50:38.598Z,32.95
2022-12-15T19:53:27.157Z,28.15
2022-12-15T19:55:56.718Z,31.25
2022-12-15T19:58:28.635Z,33.30
2022-12-15T20:01:07.744Z,35.95
2022-12-15T20:03:35.701Z,27.73
2022-12-15T20:06:11.748Z,27.45
2022-12-15T20:08:41.582Z,27.38
2022-12-15T20:11:25.820Z,28.20
2022-12-15T20:13:55.480Z,26.25
2022-12-15T20:16:23.016Z,25.73
2022-12-15T20:18:52.458Z,28.33
2022-12-15T20:21:31.326Z,28.23
2022-12-15T20:24:07.269Z,26.20
2022-12-15T20:26:43.771Z,26.73
2022-12-15T20:29:26.732Z,26.42
2022-12-15T20:32:01.122Z,30.05
2022-12-15T20:34:30.280Z,28.15
2022-12-15T20:36:59.459Z,29.27
2022-12-15T20:39:29.899Z,28.08
2022-12-15T20:41:57.742Z,30.55
2022-12-15T20:44:27.012Z,33.15
2022-12-15T20:46:56.473Z,30.80
2022-12-15T20:49:26.459Z,25.60
2022-12-15T20:51:53.423Z,30.42
2022-12-15T20:54:25.884Z,30.00
2022-12-15T20:56:53.241Z,27.73
2022-12-15T20:59:20.194Z,27.60
2022-12-15T21:01:47.268Z,28.10
2022-12-15T21:04:25.429Z,25.50
2022-12-15T21:06:55.064Z,21.50
2022-12-15T21:09:22.764Z,29.17
2022-12-15T21:11:54.066Z,26.13
2022-12-15T21:14:24.367Z,29.27
2022-12-15T21:16:51.868Z,27.67
2022-12-15T21:19:22.079Z,27.15
2022-12-15T21:21:55.266Z,28.30
2022-12-15T21:24:35.668Z,29.25
2022-12-15T21:27:04.086Z,25.33
2022-12-15T21:29:34.132Z,26.88
2022-12-15T21:32:00.888Z,24.65
2022-12-15T21:34:29.967Z,25.83
2022-12-15T21:36:57.580Z,26.90
2022-12-15T21:39:33.890Z,28.50
2022-12-15T21:42:14.995Z,27.60
2022-12-15T21:44:41.990Z,24.98
2022-12-15T21:47:49.133Z,25.80
2022-12-15T21:50:17.457Z,26.85
2022-12-15T21:52:47.926Z,26.63
2022-12-15T21:55:19.356Z,23.58
2022-12-15T21:57:48.461Z,29.88
2022-12-15T22:00:17.501Z,26.08
2022-12-15T22:02:45.709Z,24.85
2022-12-15T22:05:21.901Z,25.88
2022-12-15T22:07:51.797Z,24.02
2022-12-15T22:10:21.094Z,25.85
2022-12-15T22:12:59.759Z,26.35
2022-12-15T22:15:28.693Z,25.25
2022-12-15T22:17:56.094Z,25.13
2022-12-15T22:20:24.532Z,24.30
2022-12-15T22:22:51.615Z,26.73
2022-12-15T22:25:26.018Z,25.73
2022-12-15T22:27:57.627Z,24.45
2022-12-15T22:30:26.386Z,28.42
2022-12-15T22:32:53.907Z,30.23
2022-12-15T22:35:27.672Z,29.98
2022-12-15T22:37:55.942Z,23.15
2022-12-15T22:40:25.877Z,25.45
2022-12-15T22:42:57.773Z,27.90
2022-12-15T22:45:26.780Z,24.40
2022-12-15T22:47:58.203Z,27.83
2022-12-15T22:50:28.692Z,27.50
2022-12-15T22:52:57.580Z,28.45
2022-12-15T22:55:24.818Z,29.23
2022-12-15T22:58:03.774Z,28.40
2022-12-15T23:00:32.671Z,26.48
2022-12-15T23:02:59.668Z,28.67
2022-12-15T23:05:26.466Z,28.67
2022-12-15T23:07:57.613Z,24.55
2022-12-15T23:10:42.896Z,25.33
2022-12-15T23:13:12.109Z,25.65
2022-12-15T23:15:59.889Z,31.00
2022-12-15T23:18:28.821Z,27.10
2022-12-15T23:20:56.463Z,30.33
2022-12-15T23:23:23.561Z,27.85
2022-12-15T23:25:52.769Z,30.40
2022-12-15T23:28:23.113Z,28.00
2022-12-15T23:30:55.743Z,28.80
2022-12-15T23:33:25.481Z,30.38
2022-12-15T23:35:59.551Z,28.73
2022-12-15T23:38:29.599Z,29.40
2022-12-15T23:40:57.620Z,24.65
2022-12-15T23:43:29.601Z,29.27
2022-12-15T23:46:02.375Z,26.58
2022-12-15T23:48:31.634Z,27.52
2022-12-15T23:51:04.825Z,28.45
2022-12-15T23:53:33.233Z,28.13
2022-12-15T23:56:16.973Z,28.65
2022-12-15T23:58:48.993Z,28.33
